sensor_id;sensor_type;location;lat;lon;timestamp;P1;durP1;ratioP1;P2;durP2;ratioP2
45734;SDS011;31446;49.632;8.328;2022-08-01T00:11:47;1.90;;;1.00;;
45734;SDS011;31446;49.632;8.328;2022-08-01T00:26:47;3.17;;;1.00;;
45734;SDS011;31446;49.632;8.328;2022-08-01T00:41:48;3.33;;;1.45;;
45734;SDS011;31446;49.632;8.328;2022-08-01T00:56:49;1.25;;;1.02;;
45734;SDS011;31446;49.632;8.328;2022-08-01T01:42:28;1.00;;;0.88;;
45734;SDS011;31446;49.632;8.328;2022-08-01T01:57:32;0.90;;;0.90;;
45734;SDS011;31446;49.632;8.328;2022-08-01T02:12:36;1.13;;;0.98;;
45734;SDS011;31446;49.632;8.328;2022-08-01T02:27:40;1.60;;;0.77;;
45734;SDS011;31446;49.632;8.328;2022-08-01T02:42:49;1.38;;;0.80;;
45734;SDS011;31446;49.632;8.328;2022-08-01T02:57:50;4.30;;;1.23;;
45734;SDS011;31446;49.632;8.328;2022-08-01T03:12:53;1.42;;;1.05;;
45734;SDS011;31446;49.632;8.328;2022-08-01T03:27:58;4.45;;;1.00;;
45734;SDS011;31446;49.632;8.328;2022-08-01T03:43:11;5.30;;;1.70;;
45734;SDS011;31446;49.632;8.328;2022-08-01T03:58:36;1.88;;;0.82;;
45734;SDS011;31446;49.632;8.328;2022-08-01T04:13:39;1.70;;;0.95;;
45734;SDS011;31446;49.632;8.328;2022-08-01T04:28:39;7.32;;;1.48;;
45734;SDS011;31446;49.632;8.328;2022-08-01T04:43:42;2.15;;;1.23;;
45734;SDS011;31446;49.632;8.328;2022-08-01T04:58:43;2.67;;;1.40;;
45734;SDS011;31446;49.632;8.328;2022-08-01T05:13:44;6.70;;;1.77;;
45734;SDS011;31446;49.632;8.328;2022-08-01T05:28:44;5.30;;;1.98;;
45734;SDS011;31446;49.632;8.328;2022-08-01T05:43:45;2.33;;;1.15;;
45734;SDS011;31446;49.632;8.328;2022-08-01T05:58:46;1.80;;;1.15;;
45734;SDS011;31446;49.632;8.328;2022-08-01T06:13:47;1.95;;;0.90;;
45734;SDS011;31446;49.632;8.328;2022-08-01T06:28:50;3.50;;;0.90;;
45734;SDS011;31446;49.632;8.328;2022-08-01T06:43:51;4.10;;;0.98;;
45734;SDS011;31446;49.632;8.328;2022-08-01T06:58:51;4.95;;;0.82;;
45734;SDS011;31446;49.632;8.328;2022-08-01T07:13:52;2.88;;;0.80;;
45734;SDS011;31446;49.632;8.328;2022-08-01T07:28:53;1.40;;;0.70;;
45734;SDS011;31446;49.632;8.328;2022-08-01T07:43:53;3.90;;;0.80;;
45734;SDS011;31446;49.632;8.328;2022-08-01T07:58:54;1.15;;;1.00;;
45734;SDS011;31446;49.632;8.328;2022-08-01T08:13:54;0.95;;;0.95;;
45734;SDS011;31446;49.632;8.328;2022-08-01T08:28:55;1.70;;;1.30;;
45734;SDS011;31446;49.632;8.328;2022-08-01T08:43:56;6.03;;;1.40;;
45734;SDS011;31446;49.632;8.328;2022-08-01T08:58:59;1.97;;;1.00;;
45734;SDS011;31446;49.632;8.328;2022-08-01T09:14:22;1.23;;;1.20;;
45734;SDS011;31446;49.632;8.328;2022-08-01T09:29:24;7.90;;;1.10;;
45734;SDS011;31446;49.632;8.328;2022-08-01T09:44:36;5.37;;;1.50;;
45734;SDS011;31446;49.632;8.328;2022-08-01T09:59:39;3.23;;;1.20;;
45734;SDS011;31446;49.632;8.328;2022-08-01T10:14:46;1.57;;;1.20;;
45734;SDS011;31446;49.632;8.328;2022-08-01T10:29:59;1.50;;;1.33;;
45734;SDS011;31446;49.632;8.328;2022-08-01T10:45:16;8.40;;;1.37;;
45734;SDS011;31446;49.632;8.328;2022-08-01T11:00:18;1.40;;;1.30;;
45734;SDS011;31446;49.632;8.328;2022-08-01T11:15:20;5.30;;;0.90;;
45734;SDS011;31446;49.632;8.328;2022-08-01T11:30:25;1.63;;;1.00;;
45734;SDS011;31446;49.632;8.328;2022-08-01T11:45:45;2.20;;;1.48;;
45734;SDS011;31446;49.632;8.328;2022-08-01T12:00:56;0.60;;;0.60;;
45734;SDS011;31446;49.632;8.328;2022-08-01T12:15:58;4.27;;;0.70;;
45734;SDS011;31446;49.632;8.328;2022-08-01T12:31:07;0.93;;;0.90;;
45734;SDS011;31446;49.632;8.328;2022-08-01T12:46:08;1.30;;;0.87;;
45734;SDS011;31446;49.632;8.328;2022-08-01T13:01:15;5.10;;;0.90;;
45734;SDS011;31446;49.632;8.328;2022-08-01T13:16:26;1.43;;;0.73;;
45734;SDS011;31446;49.632;8.328;2022-08-01T13:31:31;2.28;;;0.70;;
45734;SDS011;31446;49.632;8.328;2022-08-01T13:46:33;0.70;;;0.70;;
45734;SDS011;31446;49.632;8.328;2022-08-01T14:01:34;2.47;;;0.80;;
45734;SDS011;31446;49.632;8.328;2022-08-01T14:16:35;8.48;;;1.42;;
45734;SDS011;31446;49.632;8.328;2022-08-01T14:31:37;5.67;;;0.93;;
45734;SDS011;31446;49.632;8.328;2022-08-01T14:46:37;2.15;;;1.10;;
45734;SDS011;31446;49.632;8.328;2022-08-01T15:01:38;0.60;;;0.60;;
45734;SDS011;31446;49.632;8.328;2022-08-01T15:16:39;1.30;;;0.60;;
45734;SDS011;31446;49.632;8.328;2022-08-01T15:31:39;2.17;;;0.52;;
45734;SDS011;31446;49.632;8.328;2022-08-01T15:46:40;2.13;;;0.60;;
45734;SDS011;31446;49.632;8.328;2022-08-01T16:01:41;0.93;;;0.68;;
45734;SDS011;31446;49.632;8.328;2022-08-01T16:16:41;1.85;;;0.77;;
45734;SDS011;31446;49.632;8.328;2022-08-01T16:31:42;1.65;;;1.10;;
45734;SDS011;31446;49.632;8.328;2022-08-01T16:46:43;0.93;;;0.80;;
45734;SDS011;31446;49.632;8.328;2022-08-01T17:01:43;3.45;;;0.90;;
45734;SDS011;31446;49.632;8.328;2022-08-01T17:16:44;11.52;;;1.70;;
45734;SDS011;31446;49.632;8.328;2022-08-01T17:31:45;10.17;;;2.10;;
45734;SDS011;31446;49.632;8.328;2022-08-01T17:46:46;1.50;;;1.40;;
45734;SDS011;31446;49.632;8.328;2022-08-01T18:01:46;3.17;;;2.22;;
45734;SDS011;31446;49.632;8.328;2022-08-01T18:16:47;3.40;;;1.80;;
45734;SDS011;31446;49.632;8.328;2022-08-01T18:31:47;6.40;;;2.55;;
45734;SDS011;31446;49.632;8.328;2022-08-01T18:46:49;3.53;;;2.33;;
45734;SDS011;31446;49.632;8.328;2022-08-01T19:01:51;3.87;;;3.20;;
45734;SDS011;31446;49.632;8.328;2022-08-01T19:16:52;4.35;;;2.72;;
45734;SDS011;31446;49.632;8.328;2022-08-01T19:31:52;9.80;;;3.42;;
45734;SDS011;31446;49.632;8.328;2022-08-01T19:46:53;3.90;;;2.90;;
45734;SDS011;31446;49.632;8.328;2022-08-01T20:01:54;5.40;;;1.80;;
45734;SDS011;31446;49.632;8.328;2022-08-01T20:16:55;8.57;;;2.97;;
45734;SDS011;31446;49.632;8.328;2022-08-01T20:31:56;4.28;;;2.90;;
45734;SDS011;31446;49.632;8.328;2022-08-01T20:46:59;3.55;;;2.53;;
45734;SDS011;31446;49.632;8.328;2022-08-01T21:02:13;3.97;;;2.95;;
45734;SDS011;31446;49.632;8.328;2022-08-01T21:32:54;4.97;;;2.67;;
45734;SDS011;31446;49.632;8.328;2022-08-01T21:47:56;2.92;;;2.30;;
45734;SDS011;31446;49.632;8.328;2022-08-01T22:17:57;8.50;;;2.40;;
45734;SDS011;31446;49.632;8.328;2022-08-01T22:32:58;3.13;;;2.55;;
45734;SDS011;31446;49.632;8.328;2022-08-01T22:48:06;5.25;;;3.15;;
45734;SDS011;31446;49.632;8.328;2022-08-01T23:03:18;6.28;;;2.60;;
45734;SDS011;31446;49.632;8.328;2022-08-01T23:18:24;3.17;;;2.60;;
45734;SDS011;31446;49.632;8.328;2022-08-01T23:33:25;3.30;;;2.85;;
45734;SDS011;31446;49.632;8.328;2022-08-01T23:48:25;3.80;;;2.60;;
